x

St Georges - 8nm Nw Of Crescent City, Ca (46027) Wave Buoy

10:50pm - Mon 27th Feb 2017 All times are PST. -8 hours from GMT.

  • Sig Wave height 7.5ft
  • Swell Direction
  • Peak Period 12s
  • Average Period 8s
  • Wind
    11mph, 13mph gusts
  • Sea Temp 51°f
  • Air Temp 46°f
  • Sea Pressure 1016.9mb
  • St Georges - 8nm Nw Of Crescent City, Ca
  • St Georges - 8nm Nw Of Crescent City, Ca

More Historic Weather Station data

Upgrade to MSW Pro to gain access to the past 30 days of data for over 8000 Wavebouys and Weather Stations around the globe.

Join Pro

Comparision Forecast

View Surf forecast
   
Mon 02/27 10:50pm 7.5ft 12s 8s 11 13 mph 1016.9mb 51f 46f
9:50pm 9ft 11s 8s 13 18 mph 1016.6mb 51f 47f
8:50pm 9.5ft 11s 8s 11 16 mph 1016.3mb 52f 48f
7:50pm 9ft 12s 8s 11 16 mph 1016mb 52f 46f
6:50pm 9.5ft 11s 8s 11 13 mph 1016mb 52f 48f
5:50pm 10ft 12s 8s 11 16 mph 1015.7mb 52f 48f
4:50pm 10ft 11s 8s 2 4 mph 1015.4mb 52f 47f
3:50pm 10ft 15s 9s 2 4 mph 1015.2mb 52f 47f
2:50pm 9.5ft 12s 8s 4 7 mph 1014.9mb 52f 46f
1:50pm 9ft 11s 8s 13 18 mph 1014.7mb 52f 46f
12:50pm 10ft 11s 8s 7 11 mph 1014.8mb 52f 47f
11:50am 10ft 11s 9s 2 7 mph 1015.1mb 52f 44f
10:50am 10.5ft 13s 9s 11 18 mph 1014.6mb 52f 45f
9:50am 10ft 11s 9s 18 22 mph 1014.1mb 52f 45f
8:50am 10ft 12s 9s 11 16 mph 1013.9mb 52f 45f
7:50am 9ft 11s 8s 9 13 mph 1013.4mb 52f 45f
6:50am 9ft 16s 8s 7 13 mph 1013mb 52f 43f
5:50am 9.5ft 15s 8s 11 18 mph 1012.8mb 52f 44f
4:50am 9.5ft 11s 8s 13 18 mph 1012.1mb 52f 46f
3:50am 9ft 9s 7s 13 22 mph 1011.8mb 52f 43f
2:50am 10ft 16s 8s 13 18 mph 1011.9mb 52f 45f
1:50am 8.5ft 15s 8s 13 20 mph 1011.8mb 51f 44f
12:50am 9ft 9s 8s 13 18 mph 1011.6mb 51f 45f
Sun 02/26 11:50pm 9ft 16s 9s 9 13 mph 1011.2mb 51f 44f
10:50pm 9ft 15s 9s 11 16 mph 1011.1mb 51f 44f
9:50pm 7.5ft 16s 8s 7 9 mph 1011.2mb 51f 44f
8:50pm 9ft 16s 8s 2 7 mph 1011.1mb 52f 44f
7:50pm 8ft 16s 8s 2 4 mph 1011.1mb 52f 43f
6:50pm 8ft 17s 7s 11 16 mph 1011mb 52f 44f
5:50pm 8ft 16s 8s 11 13 mph 1010.7mb 52f 47f
4:50pm 8ft 16s 7s 4 9 mph 1010.9mb 52f 47f
3:50pm 8ft 17s 7s 11 13 mph 1010.9mb 52f 47f
2:50pm 8ft 17s 7s 18 22 mph 1010.8mb 53f 47f
1:50pm 8.5ft 17s 8s 18 22 mph 1010.8mb 53f 47f
12:50pm 8.5ft 16s 7s 13 16 mph 1011.4mb 53f 45f
11:50am 8ft 16s 7s 20 25 mph 1011.9mb 52f 44f
10:50am 6ft 16s 7s 25 31 mph 1011.7mb 52f 45f
9:50am 7ft 17s 8s 22 27 mph 1012.1mb 51f 47f
8:50am 6.5ft 17s 9s 20 22 mph 1012.8mb 51f 46f
7:50am 6ft 16s 8s 16 20 mph 1013.5mb 51f 46f
6:50am 6ft 17s 8s 11 13 mph 1014mb 52f 47f
5:50am 6ft 14s 9s 9 11 mph 1014.4mb 51f 46f
4:50am 6ft 17s 8s 7 9 mph 1014.9mb 51f 46f
3:50am 6.5ft 13s 9s 4 7 mph 1015.7mb 50f 45f
2:50am 6.5ft 14s 9s 4 7 mph 1016.7mb 50f 45f
1:50am 6ft 14s 8s 4 7 mph 1017.4mb 51f 45f
12:50am 6.5ft 14s 9s 7 11 mph 1017.5mb 51f 45f
Sat 02/25 11:50pm 6ft 14s 8s 7 9 mph 1018.2mb 51f 46f
10:50pm 6ft 14s 8s 7 11 mph 1018.8mb 51f 47f
9:50pm 6ft 14s 7s 11 13 mph 1018.8mb 51f 48f
8:50pm 6ft 14s 6s 16 18 mph 1018.9mb 52f 49f
7:50pm 6.5ft 14s 7s 18 22 mph 1019.2mb 52f 49f
6:50pm 6.5ft 14s 6s 20 22 mph 1019.6mb 52f 49f
5:50pm 6ft 14s 6s 20 22 mph 1019.8mb 52f 49f
4:50pm 5.5ft 14s 6s 20 25 mph 1019.9mb 53f 50f
3:50pm 6ft 14s 7s 18 20 mph 1020.2mb 53f 50f
2:50pm 6ft 14s 8s 16 18 mph 1020.3mb 53f 49f
1:50pm 6ft 14s 8s 11 13 mph 1020.8mb 52f 49f
12:50pm 6ft 12s 8s 13 16 mph 1021.7mb 52f 48f
11:50am 6ft 14s 8s 11 16 mph 1022.2mb 52f 46f
10:50am 6ft 14s 8s 11 13 mph 1022.1mb 52f 45f
9:50am 7ft 15s 9s 9 11 mph 1022mb 52f 44f
8:50am 5.5ft 13s 7s 9 13 mph 1021.9mb 52f 44f
7:50am 6ft 14s 8s 9 13 mph 1021.8mb 51f 44f
6:50am 6ft 14s 8s 9 11 mph 1021.3mb 51f 44f
5:50am 6ft 14s 7s 11 13 mph 1021.4mb 52f 44f
4:50am 6ft 14s 7s 18 20 mph 1021.1mb 52f 44f
3:50am 6ft 15s 7s 18 22 mph 1020.7mb 52f 44f
2:50am 6.5ft 15s 7s 16 20 mph 1020.8mb 52f 44f
1:50am 7ft 15s 7s 22 25 mph 1020.7mb 52f 44f
12:50am 7ft 14s 7s 20 25 mph 1020.8mb 52f 44f
Fri 02/24 11:50pm 7ft 14s 7s 20 25 mph 1021mb 52f 43f
10:50pm 8ft 15s 7s 20 25 mph 1021.3mb 52f 43f
9:50pm 6ft 15s 7s 18 22 mph 1021.1mb 52f 44f
8:50pm 6.5ft 15s 8s 18 22 mph 1021.4mb 52f 42f
7:50pm 6ft 15s 7s 18 20 mph 1020.9mb 52f 44f
6:50pm 6.5ft 15s 6s 22 27 mph 1020.9mb 52f 44f
5:50pm 6.5ft 15s 7s 16 18 mph 1021.3mb 52f 44f
4:50pm 6ft 15s 7s 16 18 mph 1021.2mb 52f 45f
3:50pm 6ft 15s 7s 7 13 mph 1022.1mb 52f 43f
2:50pm 7ft 15s 8s 11 22 mph 1022.3mb 52f 45f
1:50pm 6.5ft 16s 8s 9 18 mph 1023mb 52f 42f
12:50pm 7ft 16s 7s 22 27 mph 1022.7mb 52f 42f
11:50am 6ft 16s 7s 18 27 mph 1023.7mb 51f 43f
10:50am 7ft 16s 7s 20 27 mph 1023.6mb 51f 43f
9:50am 7ft 16s 7s 16 22 mph 1023.7mb 52f 43f
8:50am 7.5ft 16s 8s 13 18 mph 1023.8mb 52f 42f